createdAt,value
2022-11-13T11:45:59.739Z,46.09
2022-11-13T11:47:15.309Z,45.43
2022-11-13T11:48:27.521Z,45.87
2022-11-13T11:49:32.775Z,45.67
2022-11-13T11:50:51.959Z,45.45
2022-11-13T11:52:21.869Z,46.33
2022-11-13T11:53:55.751Z,47.64
2022-11-13T11:55:26.485Z,46.98
2022-11-13T11:56:40.967Z,50.39
2022-11-13T11:57:54.119Z,50.82
2022-11-13T11:59:31.641Z,49.51
2022-11-13T12:00:49.329Z,49.17
2022-11-13T12:01:57.052Z,51.97
2022-11-13T12:03:28.608Z,49.83
2022-11-13T12:05:14.310Z,50.04
2022-11-13T12:06:46.834Z,49.33
2022-11-13T12:07:52.410Z,49.81
2022-11-13T12:09:09.495Z,48.48
2022-11-13T12:10:33.030Z,50.78
2022-11-13T12:11:52.564Z,49.50
2022-11-13T12:13:18.301Z,48.36
2022-11-13T12:14:41.410Z,47.27
2022-11-13T12:16:09.649Z,47.46
2022-11-13T12:17:39.035Z,47.34
2022-11-13T12:18:58.642Z,47.31
2022-11-13T12:20:19.134Z,47.30
2022-11-13T12:21:29.704Z,47.04
2022-11-13T12:22:46.666Z,46.61
2022-11-13T12:24:19.003Z,46.35
2022-11-13T12:25:32.922Z,45.82
2022-11-13T12:27:05.027Z,45.07
2022-11-13T12:28:22.545Z,44.96
2022-11-13T12:29:46.293Z,46.90
2022-11-13T12:31:01.240Z,47.58
2022-11-13T12:32:35.725Z,46.02
2022-11-13T12:34:01.127Z,45.93
2022-11-13T12:35:17.623Z,47.11
2022-11-13T12:36:25.576Z,47.91
2022-11-13T12:37:45.685Z,48.73
2022-11-13T12:38:57.046Z,48.58
2022-11-13T12:40:27.305Z,50.05
2022-11-13T12:41:54.879Z,51.38
2022-11-13T12:43:12.216Z,51.46
2022-11-13T12:44:30.576Z,51.27
2022-11-13T12:45:38.193Z,50.42
2022-11-13T12:46:45.003Z,49.67
2022-11-13T12:47:52.835Z,51.03
2022-11-13T12:49:00.700Z,50.28
2022-11-13T12:50:20.669Z,51.04
2022-11-13T12:51:25.740Z,50.77
2022-11-13T12:52:31.016Z,46.06
2022-11-13T12:53:54.677Z,46.56
2022-11-13T12:55:27.177Z,48.47
2022-11-13T12:56:34.471Z,48.50
2022-11-13T12:57:48.091Z,49.58
2022-11-13T12:59:28.652Z,46.38
2022-11-13T13:00:30.904Z,45.20
2022-11-13T13:02:03.092Z,44.60
2022-11-13T13:03:37.147Z,44.85
2022-11-13T13:04:48.873Z,44.99
2022-11-13T13:06:12.368Z,45.61
2022-11-13T13:07:35.958Z,45.50
2022-11-13T13:09:17.970Z,44.84
2022-11-13T13:10:54.396Z,45.02
2022-11-13T13:12:14.639Z,45.33
2022-11-13T13:13:49.361Z,44.74
2022-11-13T13:15:05.255Z,45.54
2022-11-13T13:16:11.969Z,44.48
2022-11-13T13:17:23.247Z,44.64
2022-11-13T13:18:34.294Z,45.16
2022-11-13T13:19:39.868Z,44.97
2022-11-13T13:20:57.100Z,45.05
2022-11-13T13:22:02.574Z,44.15
2022-11-13T13:23:13.004Z,44.78
2022-11-13T13:24:33.403Z,45.01
2022-11-13T13:25:40.491Z,44.59
2022-11-13T13:26:47.352Z,44.78
2022-11-13T13:28:02.346Z,44.61
2022-11-13T13:29:33.522Z,45.09
2022-11-13T13:31:00.903Z,44.75
2022-11-13T13:32:33.668Z,45.15
2022-11-13T13:33:54.745Z,46.04
2022-11-13T13:35:19.888Z,46.02
2022-11-13T13:36:35.128Z,45.57
2022-11-13T13:38:05.993Z,45.51
2022-11-13T13:39:42.235Z,45.54
2022-11-13T13:40:52.980Z,45.88
2022-11-13T13:42:49.313Z,45.61
2022-11-13T13:44:20.988Z,46.64
2022-11-13T13:45:26.352Z,49.05
2022-11-13T13:46:34.257Z,47.67
2022-11-13T13:47:49.600Z,47.53
2022-11-13T13:49:02.422Z,46.70
2022-11-13T13:50:27.244Z,46.92
2022-11-13T13:51:43.822Z,46.26
2022-11-13T13:52:55.501Z,45.91
2022-11-13T13:54:07.735Z,49.04
2022-11-13T13:55:32.045Z,49.23
2022-11-13T13:56:42.415Z,48.53
2022-11-13T13:57:47.793Z,49.67
2022-11-13T13:58:54.453Z,51.32
2022-11-13T14:00:01.497Z,51.37
2022-11-13T14:01:20.026Z,50.99
2022-11-13T14:02:27.248Z,51.25
2022-11-13T14:03:32.902Z,49.63
2022-11-13T14:04:46.733Z,48.87
2022-11-13T14:05:52.555Z,48.13
2022-11-13T14:07:00.895Z,49.44
2022-11-13T14:08:17.902Z,51.58
2022-11-13T14:09:26.278Z,49.15
2022-11-13T14:10:31.457Z,50.29
2022-11-13T14:11:36.702Z,50.70
2022-11-13T14:12:46.939Z,51.19
2022-11-13T14:13:52.804Z,49.72
2022-11-13T14:14:58.293Z,49.19
2022-11-13T14:16:06.455Z,50.64
2022-11-13T14:17:12.976Z,51.31
2022-11-13T14:18:18.300Z,52.37
2022-11-13T14:19:24.024Z,50.89
2022-11-13T14:20:34.225Z,49.95
2022-11-13T14:21:40.529Z,52.07
2022-11-13T14:22:55.188Z,50.45
2022-11-13T14:24:03.586Z,48.65
2022-11-13T14:25:27.170Z,49.13
2022-11-13T14:26:33.476Z,48.88
2022-11-13T14:27:38.988Z,48.30
2022-11-13T14:28:59.205Z,47.37
2022-11-13T14:30:07.148Z,50.33
2022-11-13T14:31:15.309Z,50.30
2022-11-13T14:32:33.711Z,49.05
2022-11-13T14:33:44.521Z,49.87
2022-11-13T14:34:53.502Z,49.62
2022-11-13T14:36:00.376Z,48.80
2022-11-13T14:37:35.435Z,48.40
2022-11-13T14:38:50.522Z,48.34
2022-11-13T14:40:01.958Z,49.39
2022-11-13T14:41:20.218Z,48.44
2022-11-13T14:42:39.358Z,48.28
2022-11-13T14:43:50.754Z,48.75
2022-11-13T14:45:17.168Z,47.81
2022-11-13T14:46:30.373Z,47.79
2022-11-13T14:47:37.468Z,48.62
2022-11-13T14:48:54.241Z,48.32
2022-11-13T14:50:18.586Z,48.37
2022-11-13T14:51:34.495Z,50.24
2022-11-13T14:52:39.936Z,51.32
2022-11-13T14:53:45.380Z,52.84
2022-11-13T14:55:18.036Z,52.10
2022-11-13T14:56:41.512Z,51.42
2022-11-13T14:57:48.880Z,52.28
2022-11-13T14:58:54.429Z,53.79
2022-11-13T15:00:47.295Z,53.21
2022-11-13T15:01:57.610Z,53.83
2022-11-13T15:03:05.501Z,56.06
2022-11-13T15:04:10.814Z,55.46
2022-11-13T15:05:16.464Z,55.86
2022-11-13T15:06:25.262Z,57.21
2022-11-13T15:07:34.319Z,59.08
2022-11-13T15:08:39.519Z,61.81
2022-11-13T15:09:45.197Z,62.70
2022-11-13T15:10:51.905Z,61.43
2022-11-13T15:11:57.611Z,60.55
2022-11-13T15:13:15.592Z,61.88
2022-11-13T15:14:21.586Z,64.04
2022-11-13T15:15:30.585Z,65.46
2022-11-13T15:16:36.406Z,66.41
2022-11-13T15:17:43.458Z,66.46
2022-11-13T15:19:14.193Z,67.27
2022-11-13T15:20:28.461Z,67.17
2022-11-13T15:21:33.415Z,67.58
2022-11-13T15:22:41.329Z,68.64
2022-11-13T15:23:46.661Z,68.70
2022-11-13T15:24:51.941Z,68.11
2022-11-13T15:25:57.621Z,68.43
2022-11-13T15:27:02.947Z,68.12
2022-11-13T15:28:08.755Z,68.93
2022-11-13T15:29:13.944Z,70.00
2022-11-13T15:30:19.819Z,70.42
2022-11-13T15:31:34.667Z,70.08
2022-11-13T15:32:40.634Z,70.28
2022-11-13T15:33:45.833Z,70.45
2022-11-13T15:34:51.264Z,67.09
2022-11-13T15:35:56.852Z,68.99
2022-11-13T15:37:01.942Z,69.61
2022-11-13T15:38:06.861Z,69.84
2022-11-13T15:39:23.060Z,70.08
2022-11-13T15:40:28.866Z,70.93
2022-11-13T15:41:36.066Z,71.92
2022-11-13T15:42:41.492Z,72.39
2022-11-13T15:43:53.334Z,72.70
2022-11-13T15:44:58.426Z,72.83
2022-11-13T15:46:03.852Z,73.46
2022-11-13T15:47:31.508Z,74.45
2022-11-13T15:48:36.625Z,72.64
2022-11-13T15:49:56.553Z,71.23
2022-11-13T15:51:18.365Z,70.16
2022-11-13T15:52:28.579Z,71.60
2022-11-13T15:53:33.656Z,72.33
2022-11-13T15:54:38.826Z,73.62
2022-11-13T15:55:43.838Z,73.70
2022-11-13T15:56:49.012Z,74.06
2022-11-13T15:57:55.398Z,74.02
2022-11-13T15:59:00.774Z,75.33
2022-11-13T16:00:14.065Z,75.35
2022-11-13T16:01:20.145Z,75.46
2022-11-13T16:02:27.238Z,75.52
2022-11-13T16:03:34.628Z,75.43
2022-11-13T16:04:55.406Z,75.68
2022-11-13T16:06:01.833Z,76.12
2022-11-13T16:07:16.605Z,76.33
2022-11-13T16:08:21.737Z,76.39
2022-11-13T16:09:27.047Z,76.47
2022-11-13T16:10:31.903Z,76.53
2022-11-13T16:11:37.135Z,76.83
2022-11-13T16:12:42.258Z,77.16
2022-11-13T16:13:47.430Z,77.19
2022-11-13T16:14:52.576Z,77.09
2022-11-13T16:16:00.034Z,77.26
2022-11-13T16:17:20.027Z,77.25
2022-11-13T16:18:29.739Z,77.55
2022-11-13T16:19:38.036Z,77.41
2022-11-13T16:20:43.330Z,77.57
2022-11-13T16:21:48.587Z,77.24
2022-11-13T16:22:55.058Z,77.03
2022-11-13T16:24:00.092Z,77.11
2022-11-13T16:25:06.367Z,77.07
2022-11-13T16:26:19.870Z,76.86
2022-11-13T16:27:29.957Z,77.24
2022-11-13T16:28:52.848Z,77.40
2022-11-13T16:30:05.504Z,77.10
2022-11-13T16:31:11.997Z,77.39
2022-11-13T16:32:17.437Z,77.91
2022-11-13T16:33:22.734Z,77.74
2022-11-13T16:34:28.276Z,77.85
2022-11-13T16:35:33.386Z,78.08
2022-11-13T16:36:38.822Z,77.99
2022-11-13T16:37:44.123Z,77.76
2022-11-13T16:38:50.864Z,77.68
2022-11-13T16:39:56.435Z,78.53
2022-11-13T16:41:01.892Z,77.85
2022-11-13T16:42:07.581Z,77.89
2022-11-13T16:43:13.245Z,77.66
2022-11-13T16:44:20.802Z,77.64
2022-11-13T16:45:26.675Z,78.32
2022-11-13T16:46:34.502Z,78.44
2022-11-13T16:47:39.856Z,78.11
2022-11-13T16:48:45.510Z,77.76
2022-11-13T16:49:51.043Z,77.80
2022-11-13T16:50:56.244Z,77.61
2022-11-13T16:52:04.702Z,77.53
2022-11-13T16:53:10.272Z,77.53
2022-11-13T16:54:15.539Z,77.61
2022-11-13T16:55:22.421Z,77.84
2022-11-13T16:56:29.156Z,77.84
2022-11-13T16:57:34.151Z,78.04
2022-11-13T16:58:39.455Z,78.06
2022-11-13T16:59:44.646Z,78.58
2022-11-13T17:00:53.039Z,77.94
2022-11-13T17:02:00.860Z,77.51
2022-11-13T17:03:06.518Z,77.35
2022-11-13T17:04:14.578Z,77.02
2022-11-13T17:05:22.166Z,77.76
2022-11-13T17:06:36.302Z,77.91
2022-11-13T17:07:41.776Z,78.22
2022-11-13T17:08:49.911Z,78.66
2022-11-13T17:10:16.667Z,78.69
2022-11-13T17:11:20.212Z,79.02
2022-11-13T17:12:25.742Z,79.26
2022-11-13T17:13:31.517Z,79.39
2022-11-13T17:14:37.943Z,79.43
2022-11-13T17:15:43.357Z,79.58
2022-11-13T17:16:48.384Z,79.76
2022-11-13T17:17:58.258Z,79.56
2022-11-13T17:19:05.091Z,79.88
2022-11-13T17:20:11.733Z,80.23
2022-11-13T17:21:17.266Z,80.36
2022-11-13T17:22:22.384Z,80.58
2022-11-13T17:23:27.864Z,80.68
2022-11-13T17:24:33.014Z,80.91
2022-11-13T17:25:38.378Z,80.82
2022-11-13T17:26:43.476Z,80.83
2022-11-13T17:27:48.947Z,80.73
2022-11-13T17:28:55.408Z,80.87
2022-11-13T17:30:01.048Z,80.83
2022-11-13T17:31:08.932Z,81.10
2022-11-13T17:32:14.327Z,81.45
2022-11-13T17:33:19.664Z,81.44
2022-11-13T17:34:25.661Z,81.45
2022-11-13T17:35:31.094Z,81.58
2022-11-13T17:36:36.197Z,81.93
2022-11-13T17:37:41.366Z,81.81
2022-11-13T17:38:46.276Z,81.72
2022-11-13T17:39:51.541Z,82.00
2022-11-13T17:41:11.071Z,81.90
2022-11-13T17:42:16.203Z,81.96
2022-11-13T17:43:22.433Z,82.09
2022-11-13T17:44:27.680Z,82.16
2022-11-13T17:45:37.048Z,82.36
2022-11-13T17:46:42.347Z,82.07
2022-11-13T17:47:47.753Z,82.03
2022-11-13T17:48:53.579Z,81.81
2022-11-13T17:50:03.879Z,81.65
2022-11-13T17:51:14.622Z,81.75
2022-11-13T17:52:19.554Z,81.96
2022-11-13T17:53:25.083Z,82.00
2022-11-13T17:54:30.248Z,82.26
2022-11-13T17:55:35.456Z,82.29
2022-11-13T17:56:42.647Z,82.03
2022-11-13T17:57:47.705Z,81.89
2022-11-13T17:58:52.956Z,81.89
2022-11-13T17:59:58.006Z,81.94
2022-11-13T18:01:10.978Z,81.91
2022-11-13T18:02:16.462Z,82.05
2022-11-13T18:03:21.552Z,82.14
2022-11-13T18:04:26.831Z,82.38
2022-11-13T18:05:32.102Z,82.27
2022-11-13T18:06:38.400Z,82.23
2022-11-13T18:07:43.810Z,82.25
2022-11-13T18:08:49.066Z,82.38
2022-11-13T18:09:54.225Z,82.37
2022-11-13T18:10:59.202Z,82.50
2022-11-13T18:12:04.828Z,83.00
2022-11-13T18:13:10.748Z,82.68
2022-11-13T18:14:16.129Z,82.85
2022-11-13T18:15:22.314Z,83.12
2022-11-13T18:16:31.399Z,83.00
2022-11-13T18:17:36.376Z,83.23
2022-11-13T18:18:42.134Z,83.06
2022-11-13T18:19:46.992Z,83.38
2022-11-13T18:20:52.466Z,83.48
2022-11-13T18:21:58.054Z,83.54
2022-11-13T18:23:03.571Z,83.57
2022-11-13T18:24:16.381Z,83.65
2022-11-13T18:25:21.602Z,83.24
2022-11-13T18:26:29.814Z,83.38
2022-11-13T18:27:35.109Z,83.50
2022-11-13T18:28:41.191Z,83.35
2022-11-13T18:29:47.137Z,83.91
2022-11-13T18:31:15.521Z,83.61
2022-11-13T18:32:21.043Z,83.45
2022-11-13T18:33:26.208Z,83.67
2022-11-13T18:34:32.374Z,83.79
2022-11-13T18:35:37.654Z,84.02
2022-11-13T18:36:43.162Z,84.02
2022-11-13T18:37:48.213Z,84.26
2022-11-13T18:38:53.570Z,84.29
2022-11-13T18:39:58.798Z,83.89
2022-11-13T18:41:12.837Z,84.24
2022-11-13T18:42:18.006Z,84.16
2022-11-13T18:43:23.476Z,83.95
2022-11-13T18:44:28.714Z,84.21
2022-11-13T18:45:34.021Z,83.90
2022-11-13T18:46:40.696Z,84.08
2022-11-13T18:47:45.919Z,84.09
2022-11-13T18:48:51.243Z,83.94
2022-11-13T18:49:58.346Z,84.04
2022-11-13T18:51:15.731Z,83.93
2022-11-13T18:52:21.018Z,84.11
2022-11-13T18:53:28.172Z,84.32
2022-11-13T18:54:33.697Z,83.71
2022-11-13T18:55:38.644Z,84.03
2022-11-13T18:56:43.802Z,83.84
2022-11-13T18:57:48.584Z,84.19
2022-11-13T18:58:56.154Z,84.08
2022-11-13T19:00:00.969Z,84.04
2022-11-13T19:01:18.859Z,84.26
2022-11-13T19:02:27.488Z,84.19
2022-11-13T19:03:33.336Z,84.05
2022-11-13T19:04:38.801Z,83.91
2022-11-13T19:05:45.463Z,84.02
2022-11-13T19:06:51.573Z,84.20
2022-11-13T19:07:56.392Z,84.05
2022-11-13T19:09:07.779Z,84.25
2022-11-13T19:10:13.234Z,83.84
2022-11-13T19:11:18.665Z,84.05
2022-11-13T19:12:23.970Z,84.23
2022-11-13T19:13:29.328Z,84.39
2022-11-13T19:14:34.511Z,84.52
2022-11-13T19:15:40.183Z,84.50
2022-11-13T19:16:45.269Z,84.35
2022-11-13T19:17:52.838Z,84.28
2022-11-13T19:19:04.426Z,84.19
2022-11-13T19:20:10.119Z,84.22
2022-11-13T19:21:16.754Z,84.41
2022-11-13T19:22:21.804Z,84.49
2022-11-13T19:23:27.210Z,84.70
2022-11-13T19:24:32.439Z,84.98
2022-11-13T19:25:37.643Z,85.01
2022-11-13T19:26:44.148Z,84.47
2022-11-13T19:27:49.668Z,84.46
2022-11-13T19:28:55.077Z,84.27
2022-11-13T19:30:00.460Z,84.55
2022-11-13T19:31:14.923Z,84.64
2022-11-13T19:32:20.325Z,84.79
2022-11-13T19:33:27.500Z,84.67
2022-11-13T19:34:32.646Z,84.79
2022-11-13T19:35:37.683Z,84.78
2022-11-13T19:36:45.178Z,84.96
2022-11-13T19:37:56.164Z,84.96
2022-11-13T19:39:01.694Z,84.65
2022-11-13T19:40:07.370Z,84.87
2022-11-13T19:41:13.590Z,84.64
2022-11-13T19:42:18.813Z,85.00
2022-11-13T19:43:23.598Z,84.90
2022-11-13T19:44:28.976Z,84.93
2022-11-13T19:45:35.908Z,84.79
2022-11-13T19:46:40.992Z,84.76
2022-11-13T19:47:46.732Z,84.32
2022-11-13T19:48:52.143Z,84.37
2022-11-13T19:49:57.366Z,84.51
2022-11-13T19:51:04.699Z,84.34
2022-11-13T19:52:09.595Z,84.25
2022-11-13T19:53:15.999Z,84.19
2022-11-13T19:54:21.615Z,84.51
2022-11-13T19:55:26.582Z,84.59
2022-11-13T19:56:31.535Z,84.70
2022-11-13T19:57:38.294Z,84.74
2022-11-13T19:58:47.424Z,84.84
2022-11-13T19:59:52.720Z,84.73
2022-11-13T20:00:59.028Z,84.65
2022-11-13T20:02:04.651Z,84.71
2022-11-13T20:03:09.672Z,84.72
2022-11-13T20:04:14.976Z,84.73
2022-11-13T20:05:21.025Z,84.76
2022-11-13T20:06:29.766Z,84.69
2022-11-13T20:07:34.933Z,84.65
2022-11-13T20:08:40.353Z,84.83
2022-11-13T20:09:45.558Z,84.98
2022-11-13T20:10:51.715Z,84.89
2022-11-13T20:11:57.067Z,85.27
2022-11-13T20:13:02.261Z,85.30
2022-11-13T20:14:07.283Z,85.06
2022-11-13T20:15:12.521Z,85.13
2022-11-13T20:16:20.996Z,85.52
2022-11-13T20:17:25.815Z,85.44
2022-11-13T20:18:31.351Z,85.27
2022-11-13T20:19:36.580Z,85.23
2022-11-13T20:20:44.130Z,85.07
2022-11-13T20:21:49.560Z,85.33
2022-11-13T20:22:54.852Z,85.36
2022-11-13T20:24:00.502Z,85.67
2022-11-13T20:25:05.682Z,85.54
2022-11-13T20:26:16.690Z,85.37
2022-11-13T20:27:21.811Z,85.42
2022-11-13T20:28:29.385Z,85.38
2022-11-13T20:29:35.015Z,85.49
2022-11-13T20:30:40.664Z,85.56
2022-11-13T20:31:45.597Z,85.36
2022-11-13T20:32:51.231Z,85.61
2022-11-13T20:33:57.179Z,85.52
2022-11-13T20:35:02.752Z,85.57
2022-11-13T20:36:08.137Z,85.31
2022-11-13T20:37:14.858Z,85.65
2022-11-13T20:38:20.160Z,85.37
2022-11-13T20:39:25.679Z,85.43
2022-11-13T20:40:30.791Z,85.42
2022-11-13T20:41:36.555Z,85.32
2022-11-13T20:42:41.781Z,85.15
2022-11-13T20:43:50.669Z,85.69
2022-11-13T20:45:00.021Z,85.78
2022-11-13T20:46:10.090Z,85.69
2022-11-13T20:47:15.402Z,85.61
2022-11-13T20:48:20.898Z,85.76
2022-11-13T20:49:26.271Z,85.53
2022-11-13T20:50:31.219Z,85.69
2022-11-13T20:51:36.283Z,85.51
2022-11-13T20:52:41.653Z,85.30
2022-11-13T20:53:47.945Z,85.47
2022-11-13T20:54:52.936Z,85.33
2022-11-13T20:55:58.035Z,85.42
2022-11-13T20:57:03.451Z,85.33
2022-11-13T20:58:08.596Z,85.33
2022-11-13T20:59:32.039Z,85.14
2022-11-13T21:00:37.364Z,85.32
2022-11-13T21:01:42.882Z,85.35
2022-11-13T21:02:48.141Z,85.69
2022-11-13T21:03:53.721Z,85.42
2022-11-13T21:04:59.190Z,85.51
2022-11-13T21:06:05.713Z,85.27
2022-11-13T21:07:10.981Z,85.71
2022-11-13T21:08:16.326Z,85.45
2022-11-13T21:09:21.249Z,85.18
2022-11-13T21:10:26.870Z,85.38
2022-11-13T21:11:32.691Z,85.39
2022-11-13T21:12:37.956Z,85.68
2022-11-13T21:13:43.104Z,85.73
2022-11-13T21:14:48.345Z,85.52
2022-11-13T21:15:53.466Z,85.92
2022-11-13T21:16:58.439Z,85.74
2022-11-13T21:18:03.865Z,85.76
2022-11-13T21:19:09.413Z,85.75
2022-11-13T21:20:14.907Z,85.78
2022-11-13T21:21:22.074Z,85.67
2022-11-13T21:22:27.298Z,85.72
2022-11-13T21:23:32.463Z,85.32
2022-11-13T21:24:37.880Z,85.13
2022-11-13T21:25:43.462Z,85.41
2022-11-13T21:26:49.520Z,85.24
2022-11-13T21:27:55.492Z,85.97
2022-11-13T21:29:00.770Z,85.69
2022-11-13T21:30:06.646Z,85.55
2022-11-13T21:31:17.502Z,85.48
2022-11-13T21:32:22.535Z,85.69
2022-11-13T21:33:27.406Z,85.77
2022-11-13T21:34:32.729Z,85.79
2022-11-13T21:35:38.307Z,85.91
2022-11-13T21:36:43.454Z,85.62
2022-11-13T21:37:48.512Z,85.78
2022-11-13T21:38:55.755Z,86.08
2022-11-13T21:40:00.681Z,85.85
2022-11-13T21:41:26.985Z,85.91
2022-11-13T21:42:32.431Z,85.91
2022-11-13T21:43:37.421Z,85.65
2022-11-13T21:44:42.623Z,85.74
2022-11-13T21:45:48.949Z,85.94
2022-11-13T21:46:54.024Z,85.96
2022-11-13T21:47:58.975Z,86.04
2022-11-13T21:49:06.972Z,86.04
2022-11-13T21:50:12.023Z,86.15
2022-11-13T21:51:17.309Z,86.03
2022-11-13T21:52:22.319Z,85.94
2022-11-13T21:53:27.631Z,85.89
2022-11-13T21:54:32.923Z,86.06
2022-11-13T21:55:37.837Z,86.09
2022-11-13T21:56:43.073Z,86.03
2022-11-13T21:57:49.138Z,85.97
2022-11-13T21:58:55.882Z,86.00
2022-11-13T22:00:00.986Z,86.03
2022-11-13T22:01:07.507Z,86.30
2022-11-13T22:02:12.709Z,85.95
2022-11-13T22:03:17.755Z,86.11
2022-11-13T22:04:23.194Z,86.35
2022-11-13T22:05:28.199Z,86.10
2022-11-13T22:06:37.593Z,86.03
2022-11-13T22:07:43.183Z,86.20
2022-11-13T22:09:12.824Z,85.96
2022-11-13T22:10:17.947Z,85.78
2022-11-13T22:11:25.877Z,85.82
2022-11-13T22:12:31.157Z,85.92
2022-11-13T22:13:36.650Z,85.97
2022-11-13T22:14:41.826Z,86.62
2022-11-13T22:15:47.037Z,86.04
2022-11-13T22:16:53.420Z,86.18
2022-11-13T22:17:58.763Z,86.29
2022-11-13T22:19:07.360Z,86.07
2022-11-13T22:20:13.317Z,86.30
2022-11-13T22:21:18.498Z,86.27
2022-11-13T22:22:23.902Z,86.27
2022-11-13T22:23:28.656Z,86.35
2022-11-13T22:24:33.479Z,86.36
2022-11-13T22:25:38.622Z,86.13
2022-11-13T22:26:45.520Z,86.34
2022-11-13T22:27:50.592Z,86.03
2022-11-13T22:28:58.642Z,86.11
2022-11-13T22:30:04.722Z,86.01
2022-11-13T22:31:22.568Z,86.28
2022-11-13T22:32:27.665Z,85.72
2022-11-13T22:33:35.461Z,85.96
2022-11-13T22:34:40.658Z,85.95
2022-11-13T22:35:45.800Z,85.93
2022-11-13T22:36:50.821Z,86.06
2022-11-13T22:37:56.226Z,86.08
2022-11-13T22:39:02.286Z,86.23
2022-11-13T22:40:08.483Z,86.20
2022-11-13T22:41:23.216Z,86.41
2022-11-13T22:42:28.877Z,86.19
2022-11-13T22:43:36.629Z,86.09
2022-11-13T22:44:55.423Z,86.19
2022-11-13T22:46:11.178Z,86.37
2022-11-13T22:47:16.438Z,86.44
2022-11-13T22:48:21.629Z,86.23
2022-11-13T22:49:26.654Z,86.49
2022-11-13T22:50:35.055Z,86.47
2022-11-13T22:51:41.551Z,86.37
2022-11-13T22:52:46.530Z,86.35
2022-11-13T22:54:00.068Z,86.38
2022-11-13T22:55:05.989Z,86.48
2022-11-13T22:56:14.287Z,86.28
2022-11-13T22:57:19.428Z,86.26
2022-11-13T22:58:24.517Z,86.44
2022-11-13T22:59:29.509Z,86.54
2022-11-13T23:00:34.721Z,86.61
2022-11-13T23:01:47.573Z,86.54
2022-11-13T23:02:53.068Z,86.70
2022-11-13T23:04:01.313Z,86.31
2022-11-13T23:05:07.382Z,86.41
2022-11-13T23:06:15.705Z,86.42
2022-11-13T23:07:23.371Z,86.43
2022-11-13T23:08:30.072Z,86.36
2022-11-13T23:09:35.332Z,86.30
2022-11-13T23:10:40.635Z,86.32
2022-11-13T23:11:46.075Z,86.29
2022-11-13T23:12:51.580Z,86.46
2022-11-13T23:14:02.268Z,86.45
2022-11-13T23:15:08.188Z,86.29
2022-11-13T23:16:13.827Z,86.69
2022-11-13T23:17:19.287Z,86.42
2022-11-13T23:18:24.653Z,86.22
2022-11-13T23:19:29.816Z,86.01
2022-11-13T23:20:39.588Z,86.22
2022-11-13T23:21:48.804Z,86.05
2022-11-13T23:22:53.933Z,86.15
2022-11-13T23:23:59.897Z,86.09
2022-11-13T23:25:05.253Z,86.35
2022-11-13T23:26:12.784Z,86.44
2022-11-13T23:27:17.902Z,86.21
2022-11-13T23:28:23.285Z,86.21
2022-11-13T23:29:28.577Z,85.80
2022-11-13T23:30:33.714Z,85.79
2022-11-13T23:31:38.934Z,85.77
2022-11-13T23:32:44.213Z,86.19
2022-11-13T23:33:49.534Z,86.17
2022-11-13T23:34:59.623Z,86.22
2022-11-13T23:36:09.672Z,86.33
2022-11-13T23:37:14.786Z,86.33
2022-11-13T23:38:19.830Z,86.54
2022-11-13T23:39:25.506Z,86.44
2022-11-13T23:40:30.660Z,86.41
2022-11-13T23:41:36.981Z,86.24
2022-11-13T23:42:54.616Z,86.30
2022-11-13T23:44:09.524Z,86.26
2022-11-13T23:45:15.127Z,86.26
2022-11-13T23:46:20.153Z,86.35
2022-11-13T23:47:25.184Z,86.21
2022-11-13T23:48:31.048Z,86.15
2022-11-13T23:49:36.494Z,86.44
2022-11-13T23:50:41.730Z,86.23
2022-11-13T23:51:46.634Z,86.35
2022-11-13T23:53:11.825Z,86.33
2022-11-13T23:54:17.072Z,86.36
2022-11-13T23:55:22.658Z,86.39
2022-11-13T23:56:27.908Z,86.24
2022-11-13T23:57:33.026Z,86.34
2022-11-13T23:58:38.165Z,86.53
2022-11-13T23:59:43.504Z,86.41
